sensor_id;sensor_type;location;lat;lon;timestamp;pressure;altitude;pressure_sealevel;temperature;humidity
12468;BME280;57850;52.922;6.256;2022-10-24T00:00:27;100223.09;;;18.58;100.00
12468;BME280;57850;52.922;6.256;2022-10-24T00:02:55;100230.38;;;18.21;100.00
12468;BME280;57850;52.922;6.256;2022-10-24T00:05:22;100217.06;;;18.34;100.00
12468;BME280;57850;52.922;6.256;2022-10-24T00:07:50;100229.53;;;18.43;100.00
12468;BME280;57850;52.922;6.256;2022-10-24T00:10:17;100210.72;;;18.47;100.00
12468;BME280;57850;52.922;6.256;2022-10-24T00:12:44;100221.13;;;18.49;100.00
12468;BME280;57850;52.922;6.256;2022-10-24T00:15:11;100232.69;;;18.59;100.00
12468;BME280;57850;52.922;6.256;2022-10-24T00:17:39;100229.81;;;18.62;100.00
12468;BME280;57850;52.922;6.256;2022-10-24T00:20:07;100199.28;;;18.36;100.00
12468;BME280;57850;52.922;6.256;2022-10-24T00:22:34;100216.81;;;18.81;100.00
12468;BME280;57850;52.922;6.256;2022-10-24T00:25:00;100221.41;;;18.68;100.00
12468;BME280;57850;52.922;6.256;2022-10-24T00:27:27;100222.94;;;18.70;100.00
12468;BME280;57850;52.922;6.256;2022-10-24T00:29:53;100228.25;;;18.70;100.00
12468;BME280;57850;52.922;6.256;2022-10-24T00:32:20;100224.31;;;18.54;100.00
12468;BME280;57850;52.922;6.256;2022-10-24T00:34:48;100237.00;;;18.71;100.00
12468;BME280;57850;52.922;6.256;2022-10-24T00:37:15;100240.50;;;18.71;100.00
12468;BME280;57850;52.922;6.256;2022-10-24T00:39:41;100252.50;;;18.64;100.00
12468;BME280;57850;52.922;6.256;2022-10-24T00:42:09;100239.53;;;18.61;100.00
12468;BME280;57850;52.922;6.256;2022-10-24T00:44:38;100262.25;;;18.75;100.00
12468;BME280;57850;52.922;6.256;2022-10-24T00:47:07;100256.13;;;18.75;100.00
12468;BME280;57850;52.922;6.256;2022-10-24T00:49:42;100256.13;;;18.75;100.00
12468;BME280;57850;52.922;6.256;2022-10-24T00:52:13;100264.88;;;18.64;100.00
12468;BME280;57850;52.922;6.256;2022-10-24T00:54:40;100262.84;;;18.79;100.00
12468;BME280;57850;52.922;6.256;2022-10-24T00:57:10;100263.56;;;18.47;100.00
12468;BME280;57850;52.922;6.256;2022-10-24T00:59:40;100248.06;;;18.65;100.00
12468;BME280;57850;52.922;6.256;2022-10-24T01:02:08;100246.88;;;18.69;100.00
12468;BME280;57850;52.922;6.256;2022-10-24T01:04:34;100246.97;;;18.67;100.00
12468;BME280;57850;52.922;6.256;2022-10-24T01:07:20;100235.00;;;18.52;100.00
12468;BME280;57850;52.922;6.256;2022-10-24T01:10:02;100196.41;;;18.39;100.00
12468;BME280;57850;52.922;6.256;2022-10-24T01:12:43;100206.75;;;18.64;100.00
12468;BME280;57850;52.922;6.256;2022-10-24T01:15:16;100202.06;;;18.67;100.00
12468;BME280;57850;52.922;6.256;2022-10-24T01:17:48;100193.06;;;18.70;100.00
12468;BME280;57850;52.922;6.256;2022-10-24T01:24:00;100158.50;;;18.51;100.00
12468;BME280;57850;52.922;6.256;2022-10-24T01:26:44;100131.69;;;18.44;100.00
12468;BME280;57850;52.922;6.256;2022-10-24T01:29:19;100108.88;;;18.43;100.00
12468;BME280;57850;52.922;6.256;2022-10-24T01:31:51;100108.28;;;18.51;100.00
12468;BME280;57850;52.922;6.256;2022-10-24T01:34:25;100114.88;;;18.56;100.00
12468;BME280;57850;52.922;6.256;2022-10-24T01:36:57;100132.56;;;18.88;100.00
12468;BME280;57850;52.922;6.256;2022-10-24T01:39:28;100127.00;;;18.59;100.00
12468;BME280;57850;52.922;6.256;2022-10-24T01:41:57;100127.59;;;18.62;100.00
12468;BME280;57850;52.922;6.256;2022-10-24T01:44:29;100109.81;;;18.64;100.00
12468;BME280;57850;52.922;6.256;2022-10-24T01:47:02;100105.69;;;18.71;100.00
12468;BME280;57850;52.922;6.256;2022-10-24T01:49:32;100114.03;;;18.56;100.00
12468;BME280;57850;52.922;6.256;2022-10-24T01:52:03;100107.66;;;18.58;100.00
12468;BME280;57850;52.922;6.256;2022-10-24T01:54:32;100107.16;;;18.64;100.00
12468;BME280;57850;52.922;6.256;2022-10-24T01:56:59;100096.75;;;18.52;100.00
12468;BME280;57850;52.922;6.256;2022-10-24T01:59:41;100117.72;;;18.76;100.00
12468;BME280;57850;52.922;6.256;2022-10-24T02:02:14;100116.72;;;18.77;100.00
12468;BME280;57850;52.922;6.256;2022-10-24T02:04:45;100128.38;;;18.85;100.00
12468;BME280;57850;52.922;6.256;2022-10-24T02:07:15;100128.66;;;18.71;100.00
12468;BME280;57850;52.922;6.256;2022-10-24T02:09:46;100129.03;;;18.66;100.00
12468;BME280;57850;52.922;6.256;2022-10-24T02:12:16;100135.63;;;18.61;100.00
12468;BME280;57850;52.922;6.256;2022-10-24T02:14:46;100148.94;;;18.70;100.00
12468;BME280;57850;52.922;6.256;2022-10-24T02:17:16;100141.88;;;18.71;100.00
12468;BME280;57850;52.922;6.256;2022-10-24T02:19:43;100167.19;;;18.85;100.00
12468;BME280;57850;52.922;6.256;2022-10-24T02:22:18;100146.19;;;18.72;100.00
12468;BME280;57850;52.922;6.256;2022-10-24T02:24:49;100136.28;;;18.53;100.00
12468;BME280;57850;52.922;6.256;2022-10-24T02:27:21;100153.13;;;18.84;100.00
12468;BME280;57850;52.922;6.256;2022-10-24T02:29:52;100141.41;;;18.66;100.00
12468;BME280;57850;52.922;6.256;2022-10-24T02:32:26;100131.19;;;18.61;100.00
12468;BME280;57850;52.922;6.256;2022-10-24T02:34:55;100136.22;;;18.64;100.00
12468;BME280;57850;52.922;6.256;2022-10-24T02:37:24;100137.38;;;18.51;100.00
12468;BME280;57850;52.922;6.256;2022-10-24T02:39:53;100142.72;;;18.71;100.00
12468;BME280;57850;52.922;6.256;2022-10-24T02:42:23;100129.03;;;18.55;100.00
12468;BME280;57850;52.922;6.256;2022-10-24T02:44:53;100128.66;;;18.49;100.00
12468;BME280;57850;52.922;6.256;2022-10-24T02:47:24;100156.56;;;18.53;100.00
12468;BME280;57850;52.922;6.256;2022-10-24T02:49:52;100145.34;;;18.71;100.00
12468;BME280;57850;52.922;6.256;2022-10-24T02:52:21;100157.50;;;18.63;100.00
12468;BME280;57850;52.922;6.256;2022-10-24T02:54:48;100160.59;;;18.79;100.00
12468;BME280;57850;52.922;6.256;2022-10-24T02:57:15;100156.53;;;18.64;100.00
12468;BME280;57850;52.922;6.256;2022-10-24T02:59:42;100171.94;;;18.59;100.00
12468;BME280;57850;52.922;6.256;2022-10-24T03:02:09;100168.78;;;18.65;100.00
12468;BME280;57850;52.922;6.256;2022-10-24T03:04:37;100155.97;;;18.60;100.00
12468;BME280;57850;52.922;6.256;2022-10-24T03:07:03;100153.44;;;18.48;100.00
12468;BME280;57850;52.922;6.256;2022-10-24T03:09:31;100161.72;;;18.54;100.00
12468;BME280;57850;52.922;6.256;2022-10-24T03:11:58;100155.47;;;18.55;100.00
12468;BME280;57850;52.922;6.256;2022-10-24T03:14:24;100171.19;;;18.46;100.00
12468;BME280;57850;52.922;6.256;2022-10-24T03:16:51;100157.38;;;18.42;100.00
12468;BME280;57850;52.922;6.256;2022-10-24T03:19:18;100164.09;;;18.46;100.00
12468;BME280;57850;52.922;6.256;2022-10-24T03:21:46;100163.25;;;18.46;100.00
12468;BME280;57850;52.922;6.256;2022-10-24T03:24:13;100166.53;;;18.49;100.00
12468;BME280;57850;52.922;6.256;2022-10-24T03:26:39;100185.72;;;18.51;100.00
12468;BME280;57850;52.922;6.256;2022-10-24T03:29:06;100189.47;;;18.60;100.00
12468;BME280;57850;52.922;6.256;2022-10-24T03:31:32;100181.28;;;18.52;100.00
12468;BME280;57850;52.922;6.256;2022-10-24T03:34:00;100193.03;;;18.37;100.00
12468;BME280;57850;52.922;6.256;2022-10-24T03:36:27;100202.19;;;18.55;100.00
12468;BME280;57850;52.922;6.256;2022-10-24T03:38:55;100204.44;;;18.82;100.00
12468;BME280;57850;52.922;6.256;2022-10-24T03:41:21;100198.25;;;18.49;100.00
12468;BME280;57850;52.922;6.256;2022-10-24T03:43:49;100201.47;;;18.53;100.00
12468;BME280;57850;52.922;6.256;2022-10-24T03:46:15;100206.28;;;18.59;100.00
12468;BME280;57850;52.922;6.256;2022-10-24T03:48:42;100202.31;;;18.53;100.00
12468;BME280;57850;52.922;6.256;2022-10-24T03:51:08;100196.31;;;18.51;100.00
12468;BME280;57850;52.922;6.256;2022-10-24T03:53:35;100203.16;;;18.54;100.00
12468;BME280;57850;52.922;6.256;2022-10-24T03:56:03;100196.06;;;18.21;100.00
12468;BME280;57850;52.922;6.256;2022-10-24T03:58:29;100194.13;;;18.34;100.00
12468;BME280;57850;52.922;6.256;2022-10-24T04:00:56;100182.84;;;18.21;100.00
12468;BME280;57850;52.922;6.256;2022-10-24T04:03:23;100176.34;;;18.14;100.00
12468;BME280;57850;52.922;6.256;2022-10-24T04:05:50;100188.38;;;18.29;100.00
12468;BME280;57850;52.922;6.256;2022-10-24T04:08:16;100193.03;;;18.37;100.00
12468;BME280;57850;52.922;6.256;2022-10-24T04:10:43;100203.84;;;18.34;100.00
12468;BME280;57850;52.922;6.256;2022-10-24T04:13:11;100214.19;;;18.48;100.00
12468;BME280;57850;52.922;6.256;2022-10-24T04:15:38;100196.31;;;18.07;100.00
12468;BME280;57850;52.922;6.256;2022-10-24T04:18:04;100204.09;;;18.31;100.00
12468;BME280;57850;52.922;6.256;2022-10-24T04:20:32;100211.44;;;18.38;100.00
12468;BME280;57850;52.922;6.256;2022-10-24T04:22:59;100198.81;;;18.19;100.00
12468;BME280;57850;52.922;6.256;2022-10-24T04:25:26;100202.66;;;18.15;100.00
12468;BME280;57850;52.922;6.256;2022-10-24T04:27:52;100216.22;;;18.33;100.00
12468;BME280;57850;52.922;6.256;2022-10-24T04:30:20;100207.34;;;18.34;100.00
12468;BME280;57850;52.922;6.256;2022-10-24T04:32:47;100199.53;;;18.22;100.00
12468;BME280;57850;52.922;6.256;2022-10-24T04:35:13;100204.22;;;18.29;100.00
12468;BME280;57850;52.922;6.256;2022-10-24T04:37:40;100192.19;;;18.14;100.00
12468;BME280;57850;52.922;6.256;2022-10-24T04:40:07;100188.75;;;18.13;100.00
12468;BME280;57850;52.922;6.256;2022-10-24T04:42:34;100189.78;;;18.11;100.00
12468;BME280;57850;52.922;6.256;2022-10-24T04:45:01;100183.06;;;17.96;100.00
12468;BME280;57850;52.922;6.256;2022-10-24T04:47:29;100184.38;;;18.01;100.00
12468;BME280;57850;52.922;6.256;2022-10-24T04:49:55;100187.16;;;18.11;100.00
12468;BME280;57850;52.922;6.256;2022-10-24T04:52:22;100190.75;;;17.88;100.00
12468;BME280;57850;52.922;6.256;2022-10-24T04:54:48;100189.44;;;17.93;100.00
12468;BME280;57850;52.922;6.256;2022-10-24T04:57:15;100188.34;;;17.85;100.00
12468;BME280;57850;52.922;6.256;2022-10-24T04:59:42;100192.78;;;17.84;100.00
12468;BME280;57850;52.922;6.256;2022-10-24T05:02:08;100205.84;;;17.86;100.00
12468;BME280;57850;52.922;6.256;2022-10-24T05:04:36;100196.38;;;17.83;100.00
12468;BME280;57850;52.922;6.256;2022-10-24T05:07:02;100200.47;;;17.98;100.00
12468;BME280;57850;52.922;6.256;2022-10-24T05:09:29;100197.22;;;17.73;100.00
12468;BME280;57850;52.922;6.256;2022-10-24T05:11:56;100198.16;;;17.72;100.00
12468;BME280;57850;52.922;6.256;2022-10-24T05:14:23;100195.84;;;17.67;100.00
12468;BME280;57850;52.922;6.256;2022-10-24T05:16:50;100200.09;;;17.81;100.00
12468;BME280;57850;52.922;6.256;2022-10-24T05:19:16;100218.69;;;17.90;100.00
12468;BME280;57850;52.922;6.256;2022-10-24T05:21:45;100203.66;;;17.69;100.00
12468;BME280;57850;52.922;6.256;2022-10-24T05:24:12;100211.81;;;17.77;100.00
12468;BME280;57850;52.922;6.256;2022-10-24T05:26:38;100214.41;;;18.00;100.00
12468;BME280;57850;52.922;6.256;2022-10-24T05:29:05;100217.28;;;17.97;100.00
12468;BME280;57850;52.922;6.256;2022-10-24T05:31:31;100208.66;;;18.06;100.00
12468;BME280;57850;52.922;6.256;2022-10-24T05:33:58;100214.88;;;17.94;100.00
12468;BME280;57850;52.922;6.256;2022-10-24T05:36:24;100219.31;;;18.05;100.00
12468;BME280;57850;52.922;6.256;2022-10-24T05:38:52;100222.81;;;17.94;100.00
12468;BME280;57850;52.922;6.256;2022-10-24T05:41:19;100225.94;;;18.10;100.00
12468;BME280;57850;52.922;6.256;2022-10-24T05:43:45;100215.50;;;17.98;100.00
12468;BME280;57850;52.922;6.256;2022-10-24T05:46:12;100212.25;;;17.94;100.00
12468;BME280;57850;52.922;6.256;2022-10-24T05:48:38;100221.88;;;18.29;100.00
12468;BME280;57850;52.922;6.256;2022-10-24T05:51:05;100218.03;;;18.10;100.00
12468;BME280;57850;52.922;6.256;2022-10-24T05:53:31;100212.84;;;18.20;100.00
12468;BME280;57850;52.922;6.256;2022-10-24T05:55:59;100227.63;;;18.34;100.00
12468;BME280;57850;52.922;6.256;2022-10-24T05:58:26;100217.66;;;18.15;100.00
12468;BME280;57850;52.922;6.256;2022-10-24T06:00:52;100222.84;;;18.16;100.00
12468;BME280;57850;52.922;6.256;2022-10-24T06:03:19;100219.22;;;18.17;100.00
12468;BME280;57850;52.922;6.256;2022-10-24T06:05:45;100215.16;;;18.25;100.00
12468;BME280;57850;52.922;6.256;2022-10-24T06:08:12;100218.13;;;18.20;100.00
12468;BME280;57850;52.922;6.256;2022-10-24T06:10:38;100219.56;;;18.24;100.00
12468;BME280;57850;52.922;6.256;2022-10-24T06:13:06;100209.25;;;18.21;100.00
12468;BME280;57850;52.922;6.256;2022-10-24T06:15:33;100220.75;;;18.20;100.00
12468;BME280;57850;52.922;6.256;2022-10-24T06:17:59;100213.94;;;18.17;100.00
12468;BME280;57850;52.922;6.256;2022-10-24T06:20:26;100217.69;;;18.26;100.00
12468;BME280;57850;52.922;6.256;2022-10-24T06:22:52;100223.41;;;18.09;100.00
12468;BME280;57850;52.922;6.256;2022-10-24T06:25:20;100223.06;;;18.25;100.00
12468;BME280;57850;52.922;6.256;2022-10-24T06:27:46;100218.88;;;18.22;100.00
12468;BME280;57850;52.922;6.256;2022-10-24T06:30:15;100217.91;;;18.01;100.00
12468;BME280;57850;52.922;6.256;2022-10-24T06:32:41;100231.06;;;17.90;100.00
12468;BME280;57850;52.922;6.256;2022-10-24T06:35:08;100215.81;;;17.82;100.00
12468;BME280;57850;52.922;6.256;2022-10-24T06:37:37;100232.16;;;17.98;100.00
12468;BME280;57850;52.922;6.256;2022-10-24T06:40:04;100222.28;;;17.89;100.00
12468;BME280;57850;52.922;6.256;2022-10-24T06:42:31;100230.06;;;17.80;100.00
12468;BME280;57850;52.922;6.256;2022-10-24T06:44:57;100224.94;;;17.89;100.00
12468;BME280;57850;52.922;6.256;2022-10-24T06:47:26;100230.50;;;17.97;100.00
12468;BME280;57850;52.922;6.256;2022-10-24T06:49:52;100231.09;;;18.01;100.00
12468;BME280;57850;52.922;6.256;2022-10-24T06:52:19;100225.31;;;17.96;100.00
12468;BME280;57850;52.922;6.256;2022-10-24T06:54:45;100236.97;;;18.15;100.00
12468;BME280;57850;52.922;6.256;2022-10-24T06:57:12;100246.94;;;18.23;100.00
12468;BME280;57850;52.922;6.256;2022-10-24T06:59:38;100255.56;;;18.14;100.00
12468;BME280;57850;52.922;6.256;2022-10-24T07:02:05;100252.47;;;18.20;100.00
12468;BME280;57850;52.922;6.256;2022-10-24T07:04:33;100249.59;;;18.23;100.00
12468;BME280;57850;52.922;6.256;2022-10-24T07:06:59;100255.13;;;18.31;100.00
12468;BME280;57850;52.922;6.256;2022-10-24T07:09:26;100246.59;;;18.28;100.00
12468;BME280;57850;52.922;6.256;2022-10-24T07:11:53;100259.19;;;18.24;100.00
12468;BME280;57850;52.922;6.256;2022-10-24T07:14:20;100261.47;;;18.17;100.00
12468;BME280;57850;52.922;6.256;2022-10-24T07:16:47;100261.13;;;18.33;100.00
12468;BME280;57850;52.922;6.256;2022-10-24T07:19:13;100277.88;;;18.56;100.00
12468;BME280;57850;52.922;6.256;2022-10-24T07:21:41;100289.22;;;18.45;100.00
12468;BME280;57850;52.922;6.256;2022-10-24T07:24:10;100278.91;;;18.42;100.00
12468;BME280;57850;52.922;6.256;2022-10-24T07:26:37;100283.38;;;18.42;100.00
12468;BME280;57850;52.922;6.256;2022-10-24T07:29:04;100282.31;;;18.55;100.00
12468;BME280;57850;52.922;6.256;2022-10-24T07:31:33;100291.19;;;18.65;100.00
12468;BME280;57850;52.922;6.256;2022-10-24T07:34:01;100283.75;;;18.70;100.00
12468;BME280;57850;52.922;6.256;2022-10-24T07:36:29;100285.91;;;18.77;100.00
12468;BME280;57850;52.922;6.256;2022-10-24T07:38:58;100300.56;;;18.58;100.00
12468;BME280;57850;52.922;6.256;2022-10-24T07:41:26;100284.47;;;18.61;100.00
12468;BME280;57850;52.922;6.256;2022-10-24T07:43:53;100296.50;;;18.65;100.00
12468;BME280;57850;52.922;6.256;2022-10-24T07:46:22;100293.47;;;18.81;100.00
12468;BME280;57850;52.922;6.256;2022-10-24T07:48:49;100288.22;;;18.70;100.00
12468;BME280;57850;52.922;6.256;2022-10-24T07:51:16;100284.09;;;18.77;100.00
12468;BME280;57850;52.922;6.256;2022-10-24T07:53:43;100300.22;;;18.63;100.00
12468;BME280;57850;52.922;6.256;2022-10-24T07:56:11;100286.38;;;18.70;100.00
12468;BME280;57850;52.922;6.256;2022-10-24T07:58:40;100290.72;;;18.71;100.00
12468;BME280;57850;52.922;6.256;2022-10-24T08:01:08;100303.94;;;18.94;100.00
12468;BME280;57850;52.922;6.256;2022-10-24T08:03:35;100311.03;;;18.82;100.00
12468;BME280;57850;52.922;6.256;2022-10-24T08:06:03;100298.03;;;18.90;100.00
12468;BME280;57850;52.922;6.256;2022-10-24T08:08:30;100297.94;;;18.92;100.00
12468;BME280;57850;52.922;6.256;2022-10-24T08:10:56;100308.75;;;18.89;100.00
12468;BME280;57850;52.922;6.256;2022-10-24T08:13:24;100306.44;;;18.95;100.00
12468;BME280;57850;52.922;6.256;2022-10-24T08:15:51;100307.06;;;18.88;100.00
12468;BME280;57850;52.922;6.256;2022-10-24T08:18:18;100289.03;;;18.70;100.00
12468;BME280;57850;52.922;6.256;2022-10-24T08:20:44;100312.59;;;18.85;100.00
12468;BME280;57850;52.922;6.256;2022-10-24T08:23:11;100320.28;;;18.88;100.00
12468;BME280;57850;52.922;6.256;2022-10-24T08:25:38;100316.31;;;19.04;100.00
12468;BME280;57850;52.922;6.256;2022-10-24T08:28:05;100324.09;;;19.17;100.00
12468;BME280;57850;52.922;6.256;2022-10-24T08:30:33;100330.50;;;18.81;100.00
12468;BME280;57850;52.922;6.256;2022-10-24T08:33:00;100316.75;;;18.98;100.00
12468;BME280;57850;52.922;6.256;2022-10-24T08:35:26;100330.56;;;19.24;100.00
12468;BME280;57850;52.922;6.256;2022-10-24T08:37:52;100329.56;;;19.36;100.00
12468;BME280;57850;52.922;6.256;2022-10-24T08:40:19;100314.47;;;19.05;100.00
12468;BME280;57850;52.922;6.256;2022-10-24T08:42:46;100322.66;;;19.02;100.00
12468;BME280;57850;52.922;6.256;2022-10-24T08:45:17;100330.25;;;19.06;100.00
12468;BME280;57850;52.922;6.256;2022-10-24T08:47:49;100315.22;;;19.07;100.00
12468;BME280;57850;52.922;6.256;2022-10-24T08:50:22;100337.09;;;19.09;100.00
12468;BME280;57850;52.922;6.256;2022-10-24T08:52:51;100336.09;;;19.32;100.00
12468;BME280;57850;52.922;6.256;2022-10-24T08:55:23;100329.09;;;19.42;100.00
12468;BME280;57850;52.922;6.256;2022-10-24T08:57:53;100357.00;;;19.46;100.00
12468;BME280;57850;52.922;6.256;2022-10-24T09:00:24;100338.56;;;19.67;100.00
12468;BME280;57850;52.922;6.256;2022-10-24T09:02:56;100361.19;;;20.23;100.00
12468;BME280;57850;52.922;6.256;2022-10-24T09:05:29;100357.81;;;19.58;100.00
12468;BME280;57850;52.922;6.256;2022-10-24T09:08:02;100369.22;;;19.69;100.00
12468;BME280;57850;52.922;6.256;2022-10-24T09:10:37;100389.97;;;19.09;100.00
12468;BME280;57850;52.922;6.256;2022-10-24T09:13:11;100361.72;;;19.20;100.00
12468;BME280;57850;52.922;6.256;2022-10-24T09:15:40;100361.97;;;19.29;100.00
12468;BME280;57850;52.922;6.256;2022-10-24T09:18:14;100372.97;;;19.67;100.00
12468;BME280;57850;52.922;6.256;2022-10-24T09:20:43;100349.31;;;19.32;100.00
12468;BME280;57850;52.922;6.256;2022-10-24T09:23:11;100386.81;;;19.59;100.00
12468;BME280;57850;52.922;6.256;2022-10-24T09:25:43;100365.91;;;19.34;100.00
12468;BME280;57850;52.922;6.256;2022-10-24T09:28:11;100395.84;;;20.20;100.00
12468;BME280;57850;52.922;6.256;2022-10-24T09:30:38;100422.66;;;21.00;100.00
12468;BME280;57850;52.922;6.256;2022-10-24T09:33:16;100418.19;;;21.01;100.00
12468;BME280;57850;52.922;6.256;2022-10-24T09:35:44;100414.00;;;20.77;100.00
12468;BME280;57850;52.922;6.256;2022-10-24T09:38:27;100433.53;;;20.97;100.00
12468;BME280;57850;52.922;6.256;2022-10-24T09:40:59;100423.72;;;20.26;100.00
12468;BME280;57850;52.922;6.256;2022-10-24T09:43:32;100433.44;;;20.25;100.00
12468;BME280;57850;52.922;6.256;2022-10-24T09:46:02;100423.03;;;20.02;100.00
12468;BME280;57850;52.922;6.256;2022-10-24T09:48:36;100439.59;;;20.15;100.00
12468;BME280;57850;52.922;6.256;2022-10-24T09:51:04;100440.78;;;19.90;100.00
12468;BME280;57850;52.922;6.256;2022-10-24T09:53:35;100454.38;;;20.60;100.00
12468;BME280;57850;52.922;6.256;2022-10-24T09:56:07;100450.56;;;20.33;100.00
12468;BME280;57850;52.922;6.256;2022-10-24T09:58:34;100442.66;;;19.99;100.00
12468;BME280;57850;52.922;6.256;2022-10-24T10:01:03;100452.72;;;20.27;100.00
12468;BME280;57850;52.922;6.256;2022-10-24T10:03:32;100446.31;;;19.98;100.00
12468;BME280;57850;52.922;6.256;2022-10-24T10:06:02;100446.38;;;19.65;100.00
12468;BME280;57850;52.922;6.256;2022-10-24T10:08:31;100443.34;;;19.58;100.00
12468;BME280;57850;52.922;6.256;2022-10-24T10:11:05;100478.19;;;19.97;100.00
12468;BME280;57850;52.922;6.256;2022-10-24T10:13:34;100461.25;;;19.77;100.00
12468;BME280;57850;52.922;6.256;2022-10-24T10:16:05;100444.81;;;19.62;100.00
12468;BME280;57850;52.922;6.256;2022-10-24T10:18:42;100455.41;;;19.62;100.00
12468;BME280;57850;52.922;6.256;2022-10-24T10:21:12;100467.25;;;20.01;100.00
12468;BME280;57850;52.922;6.256;2022-10-24T10:23:41;100510.53;;;21.27;100.00
12468;BME280;57850;52.922;6.256;2022-10-24T10:26:18;100481.22;;;21.69;100.00
12468;BME280;57850;52.922;6.256;2022-10-24T10:28:54;100492.00;;;21.67;100.00
12468;BME280;57850;52.922;6.256;2022-10-24T10:31:23;100500.56;;;20.78;100.00
12468;BME280;57850;52.922;6.256;2022-10-24T10:34:11;100502.44;;;20.67;100.00
12468;BME280;57850;52.922;6.256;2022-10-24T10:36:46;100508.19;;;20.72;100.00
12468;BME280;57850;52.922;6.256;2022-10-24T10:39:33;100505.78;;;20.48;100.00
12468;BME280;57850;52.922;6.256;2022-10-24T10:42:06;100504.75;;;20.60;100.00
12468;BME280;57850;52.922;6.256;2022-10-24T10:44:59;100526.47;;;20.54;100.00
12468;BME280;57850;52.922;6.256;2022-10-24T10:47:34;100509.16;;;20.71;100.00
12468;BME280;57850;52.922;6.256;2022-10-24T10:50:18;100525.28;;;21.00;100.00
12468;BME280;57850;52.922;6.256;2022-10-24T10:52:48;100513.75;;;20.90;100.00
12468;BME280;57850;52.922;6.256;2022-10-24T10:55:24;100524.88;;;20.83;100.00
12468;BME280;57850;52.922;6.256;2022-10-24T10:57:59;100541.81;;;20.71;100.00
12468;BME280;57850;52.922;6.256;2022-10-24T11:00:34;100520.16;;;20.66;100.00
12468;BME280;57850;52.922;6.256;2022-10-24T11:03:11;100535.81;;;20.90;100.00
12468;BME280;57850;52.922;6.256;2022-10-24T11:05:52;100527.94;;;20.47;100.00
12468;BME280;57850;52.922;6.256;2022-10-24T11:08:43;100512.88;;;20.79;100.00
12468;BME280;57850;52.922;6.256;2022-10-24T11:11:15;100532.94;;;21.14;100.00
12468;BME280;57850;52.922;6.256;2022-10-24T11:13:48;100510.78;;;20.19;100.00
12468;BME280;57850;52.922;6.256;2022-10-24T11:16:21;100526.06;;;20.27;100.00
12468;BME280;57850;52.922;6.256;2022-10-24T11:18:51;100538.56;;;20.68;100.00
12468;BME280;57850;52.922;6.256;2022-10-24T11:21:22;100530.41;;;20.28;100.00
12468;BME280;57850;52.922;6.256;2022-10-24T11:23:53;100526.16;;;20.37;100.00
12468;BME280;57850;52.922;6.256;2022-10-24T11:26:27;100546.94;;;20.84;100.00
12468;BME280;57850;52.922;6.256;2022-10-24T11:29:00;100538.25;;;20.29;100.00
12468;BME280;57850;52.922;6.256;2022-10-24T11:31:32;100544.81;;;20.46;100.00
12468;BME280;57850;52.922;6.256;2022-10-24T11:34:04;100560.03;;;20.65;100.00
12468;BME280;57850;52.922;6.256;2022-10-24T11:36:37;100542.63;;;19.97;100.00
12468;BME280;57850;52.922;6.256;2022-10-24T11:39:12;100545.16;;;19.88;100.00
12468;BME280;57850;52.922;6.256;2022-10-24T11:41:51;100573.56;;;19.97;100.00
12468;BME280;57850;52.922;6.256;2022-10-24T11:44:43;100544.91;;;19.68;100.00
12468;BME280;57850;52.922;6.256;2022-10-24T11:50:16;100561.75;;;19.67;100.00
12468;BME280;57850;52.922;6.256;2022-10-24T11:52:49;100583.03;;;20.21;100.00
12468;BME280;57850;52.922;6.256;2022-10-24T11:55:18;100594.22;;;20.47;100.00
12468;BME280;57850;52.922;6.256;2022-10-24T11:57:48;100580.88;;;20.15;100.00
12468;BME280;57850;52.922;6.256;2022-10-24T12:00:18;100602.13;;;21.94;100.00
12468;BME280;57850;52.922;6.256;2022-10-24T12:03:24;100579.50;;;20.54;100.00
12468;BME280;57850;52.922;6.256;2022-10-24T12:06:15;100611.81;;;20.48;100.00
12468;BME280;57850;52.922;6.256;2022-10-24T12:09:06;100593.91;;;20.07;100.00
12468;BME280;57850;52.922;6.256;2022-10-24T12:11:44;100598.72;;;20.13;100.00
12468;BME280;57850;52.922;6.256;2022-10-24T12:14:37;100591.59;;;20.14;100.00
12468;BME280;57850;52.922;6.256;2022-10-24T12:17:34;100589.66;;;20.27;100.00
12468;BME280;57850;52.922;6.256;2022-10-24T12:20:04;100585.84;;;19.98;100.00
12468;BME280;57850;52.922;6.256;2022-10-24T12:22:34;100598.59;;;20.04;100.00
12468;BME280;57850;52.922;6.256;2022-10-24T12:25:07;100595.69;;;19.62;100.00
12468;BME280;57850;52.922;6.256;2022-10-24T12:27:42;100607.88;;;19.87;100.00
12468;BME280;57850;52.922;6.256;2022-10-24T12:30:15;100599.19;;;20.29;100.00
12468;BME280;57850;52.922;6.256;2022-10-24T12:32:44;100580.53;;;19.75;100.00
12468;BME280;57850;52.922;6.256;2022-10-24T12:41:42;100610.06;;;20.26;100.00
12468;BME280;57850;52.922;6.256;2022-10-24T12:44:23;100611.34;;;20.10;100.00
12468;BME280;57850;52.922;6.256;2022-10-24T12:46:52;100623.88;;;20.19;100.00
12468;BME280;57850;52.922;6.256;2022-10-24T12:49:25;100621.69;;;20.24;100.00
12468;BME280;57850;52.922;6.256;2022-10-24T12:51:53;100616.75;;;19.86;100.00
12468;BME280;57850;52.922;6.256;2022-10-24T12:54:39;100622.84;;;19.42;100.00
12468;BME280;57850;52.922;6.256;2022-10-24T12:57:22;100628.56;;;19.93;100.00
12468;BME280;57850;52.922;6.256;2022-10-24T12:59:50;100644.38;;;20.39;100.00
12468;BME280;57850;52.922;6.256;2022-10-24T13:05:54;100626.69;;;20.71;100.00
12468;BME280;57850;52.922;6.256;2022-10-24T13:08:38;100630.00;;;20.19;100.00
12468;BME280;57850;52.922;6.256;2022-10-24T13:11:21;100636.16;;;20.31;100.00